createdAt,value
2019-04-29T00:01:51.095Z,96607.27
2019-04-29T00:04:17.987Z,96602.87
2019-04-29T00:06:45.090Z,96599.22
2019-04-29T00:09:16.122Z,96592.21
2019-04-29T00:11:43.678Z,96593.14
2019-04-29T00:14:10.842Z,96590.16
2019-04-29T00:16:37.830Z,96590.16
2019-04-29T00:19:08.067Z,96599.44
2019-04-29T00:21:35.366Z,96596.72
2019-04-29T00:24:04.584Z,96589.37
2019-04-29T00:26:33.611Z,96583.15
2019-04-29T00:29:00.572Z,96589.94
2019-04-29T00:31:29.146Z,96595.59
2019-04-29T00:33:56.107Z,96587.78
2019-04-29T00:36:25.315Z,96592.41
2019-04-29T00:38:52.815Z,96582.12
2019-04-29T00:41:25.462Z,96577.72
2019-04-29T00:43:57.684Z,96576.59
2019-04-29T00:46:25.040Z,96572.52
2019-04-29T00:48:52.507Z,96575.72
2019-04-29T00:51:19.503Z,96571.84
2019-04-29T00:53:48.033Z,96577.73
2019-04-29T00:56:15.381Z,96579.55
2019-04-29T00:58:42.446Z,96577.06
2019-04-29T01:01:12.347Z,96568.47
2019-04-29T01:03:41.143Z,96570.84
2019-04-29T01:06:08.826Z,96567.34
2019-04-29T01:08:36.251Z,96569.82
2019-04-29T01:11:03.543Z,96564.39
2019-04-29T01:13:30.806Z,96563.03
2019-04-29T01:15:58.008Z,96557.38
2019-04-29T01:18:25.563Z,96561.91
2019-04-29T01:20:52.958Z,96558.40
2019-04-29T01:23:22.445Z,96559.06
2019-04-29T01:25:51.722Z,96558.87
2019-04-29T01:28:18.975Z,96565.42
2019-04-29T01:30:58.251Z,96557.59
2019-04-29T01:33:25.855Z,96557.13
2019-04-29T01:36:04.355Z,96558.39
2019-04-29T01:38:31.367Z,96560.08
2019-04-29T01:41:04.594Z,96557.47
2019-04-29T01:43:49.959Z,96561.65
2019-04-29T01:46:17.195Z,96552.15
2019-04-29T01:48:44.764Z,96550.36
2019-04-29T01:51:11.847Z,96551.95
2019-04-29T01:53:39.031Z,96543.80
2019-04-29T01:56:06.582Z,96543.80
2019-04-29T01:58:33.775Z,96537.79
2019-04-29T02:01:01.966Z,96530.44
2019-04-29T02:03:29.570Z,96531.00
2019-04-29T02:05:56.989Z,96529.64
2019-04-29T02:08:24.199Z,96533.16
2019-04-29T02:10:51.394Z,96532.02
2019-04-29T02:13:19.864Z,96531.80
2019-04-29T02:15:46.767Z,96535.98
2019-04-29T02:18:13.683Z,96532.94
2019-04-29T02:20:40.780Z,96526.81
2019-04-29T02:23:12.189Z,96524.23
2019-04-29T02:25:40.956Z,96528.18
2019-04-29T02:28:07.850Z,96525.01
2019-04-29T02:30:44.540Z,96526.17
2019-04-29T02:33:11.705Z,96526.17
2019-04-29T02:35:39.411Z,96521.30
2019-04-29T02:38:08.332Z,96526.17
2019-04-29T02:40:54.661Z,96530.44
2019-04-29T02:43:29.907Z,96527.52
2019-04-29T02:45:57.295Z,96521.87
2019-04-29T02:48:29.104Z,96523.79
2019-04-29T02:50:54.653Z,96528.19
2019-04-29T02:53:21.670Z,96521.64
2019-04-29T02:55:50.424Z,96524.13
2019-04-29T02:58:22.057Z,96520.84
2019-04-29T03:01:08.506Z,96524.35
2019-04-29T03:03:37.461Z,96522.20
2019-04-29T03:06:05.201Z,96522.20
2019-04-29T03:08:32.716Z,96524.69
2019-04-29T03:11:00.231Z,96527.06
2019-04-29T03:13:27.247Z,96518.92
2019-04-29T03:15:54.449Z,96525.57
2019-04-29T03:18:24.024Z,96519.58
2019-04-29T03:20:53.761Z,96522.52
2019-04-29T03:23:23.251Z,96520.61
2019-04-29T03:25:50.486Z,96523.55
2019-04-29T03:28:17.678Z,96519.58
2019-04-29T03:30:45.381Z,96523.45
2019-04-29T03:33:12.734Z,96522.30
2019-04-29T03:35:39.823Z,96522.30
2019-04-29T03:38:07.475Z,96517.09
2019-04-29T03:40:34.777Z,96513.25
2019-04-29T03:43:02.095Z,96506.70
2019-04-29T03:45:29.663Z,96511.00
2019-04-29T03:47:56.771Z,96510.09
2019-04-29T03:50:23.673Z,96511.69
2019-04-29T03:52:50.527Z,96509.40
2019-04-29T03:55:17.532Z,96502.05
2019-04-29T03:57:45.179Z,96505.55
2019-04-29T04:00:16.179Z,96505.55
2019-04-29T04:02:46.215Z,96501.02
2019-04-29T04:05:24.349Z,96502.61
2019-04-29T04:07:59.153Z,96498.54
2019-04-29T04:10:26.362Z,96502.05
2019-04-29T04:12:53.558Z,96501.70
2019-04-29T04:15:20.932Z,96500.27
2019-04-29T04:17:50.064Z,96503.22
2019-04-29T04:20:16.916Z,96502.06
2019-04-29T04:22:47.274Z,96502.63
2019-04-29T04:25:20.076Z,96502.63
2019-04-29T04:27:46.958Z,96502.85
2019-04-29T04:30:15.954Z,96507.05
2019-04-29T04:32:43.572Z,96503.77
2019-04-29T04:35:11.247Z,96504.22
2019-04-29T04:37:38.298Z,96503.66
2019-04-29T04:40:08.994Z,96498.23
2019-04-29T04:42:36.153Z,96499.58
2019-04-29T04:45:07.124Z,96498.98
2019-04-29T04:47:34.232Z,96501.70
2019-04-29T04:50:03.657Z,96505.67
2019-04-29T04:52:31.379Z,96508.27
2019-04-29T04:54:58.879Z,96506.34
2019-04-29T04:57:25.791Z,96509.86
2019-04-29T04:59:52.711Z,96511.78
2019-04-29T05:02:21.695Z,96515.06
2019-04-29T05:04:48.875Z,96512.91
2019-04-29T05:07:16.031Z,96513.14
2019-04-29T05:09:43.026Z,96514.72
2019-04-29T05:12:10.463Z,96516.88
2019-04-29T05:14:38.050Z,96516.64
2019-04-29T05:17:05.343Z,96522.50
2019-04-29T05:19:32.326Z,96525.22
2019-04-29T05:21:59.387Z,96519.22
2019-04-29T05:24:30.009Z,96520.95
2019-04-29T05:26:57.162Z,96520.49
2019-04-29T05:29:24.351Z,96513.48
2019-04-29T05:31:51.222Z,96518.11
2019-04-29T05:34:20.031Z,96520.83
2019-04-29T05:36:48.942Z,96516.42
2019-04-29T05:39:17.852Z,96516.08
2019-04-29T05:41:45.062Z,96515.38
2019-04-29T05:44:20.681Z,96522.28
2019-04-29T05:46:52.655Z,96517.96
2019-04-29T05:49:21.599Z,96527.02
2019-04-29T05:51:53.238Z,96524.73
2019-04-29T05:54:22.144Z,96526.54
2019-04-29T05:56:49.777Z,96530.05
2019-04-29T05:59:16.859Z,96529.38
2019-04-29T06:01:47.181Z,96530.03
2019-04-29T06:04:16.347Z,96524.70
2019-04-29T06:06:42.698Z,96523.21
2019-04-29T06:09:11.573Z,96522.88
2019-04-29T06:11:38.762Z,96525.92
2019-04-29T06:14:06.378Z,96513.56
2019-04-29T06:16:33.783Z,96518.31
2019-04-29T06:19:05.578Z,96523.06
2019-04-29T06:21:29.660Z,96520.66
2019-04-29T06:23:59.490Z,96522.33
2019-04-29T06:26:25.523Z,96516.89
2019-04-29T06:28:52.755Z,96518.21
2019-04-29T06:31:19.996Z,96522.25
2019-04-29T06:33:47.382Z,96530.52
2019-04-29T06:36:14.639Z,96520.63
2019-04-29T06:38:41.658Z,96519.49
2019-04-29T06:41:09.756Z,96525.61
2019-04-29T06:43:37.488Z,96514.73
2019-04-29T06:46:04.518Z,96515.41
2019-04-29T06:48:31.667Z,96522.84
2019-04-29T06:50:59.255Z,96521.48
2019-04-29T06:53:26.320Z,96524.55
2019-04-29T06:55:53.515Z,96530.21
2019-04-29T06:58:20.318Z,96520.58
2019-04-29T07:00:50.757Z,96519.22
2019-04-29T07:03:20.896Z,96525.11
2019-04-29T07:05:46.075Z,96522.47
2019-04-29T07:08:13.491Z,96523.22
2019-04-29T07:10:40.457Z,96527.63
2019-04-29T07:13:07.395Z,96525.20
2019-04-29T07:15:34.701Z,96525.42
2019-04-29T07:18:01.678Z,96527.45
2019-04-29T07:20:32.525Z,96530.12
2019-04-29T07:23:00.754Z,96531.37
2019-04-29T07:25:28.697Z,96530.99
2019-04-29T07:27:55.639Z,96533.37
2019-04-29T07:30:22.747Z,96536.09
2019-04-29T07:32:50.431Z,96534.16
2019-04-29T07:35:17.468Z,96536.09
2019-04-29T07:37:44.598Z,96539.83
2019-04-29T07:40:12.231Z,96542.55
2019-04-29T07:42:39.584Z,96544.36
2019-04-29T07:45:16.423Z,96544.36
2019-04-29T07:47:56.365Z,96546.51
2019-04-29T07:50:15.714Z,96542.77
2019-04-29T07:52:45.595Z,96543.00
2019-04-29T07:55:12.070Z,96544.02
2019-04-29T07:57:39.138Z,96546.36
2019-04-29T08:00:08.539Z,96545.17
2019-04-29T08:02:36.510Z,96545.17
2019-04-29T08:05:06.738Z,96545.39
2019-04-29T08:07:35.355Z,96549.48
2019-04-29T08:10:05.104Z,96552.64
2019-04-29T08:12:33.432Z,96547.42
2019-04-29T08:15:07.804Z,96546.51
2019-04-29T08:17:34.557Z,96553.73
2019-04-29T08:20:05.172Z,96553.73
2019-04-29T08:22:31.724Z,96553.95
2019-04-29T08:24:58.787Z,96555.31
2019-04-29T08:27:39.072Z,96556.33
2019-04-29T08:29:54.750Z,96557.34
2019-04-29T08:32:21.711Z,96552.91
2019-04-29T08:34:49.553Z,96553.93
2019-04-29T08:37:16.872Z,96555.48
2019-04-29T08:39:44.535Z,96558.20
2019-04-29T08:42:16.679Z,96558.78
2019-04-29T08:45:03.722Z,96556.28
2019-04-29T08:47:32.532Z,96550.14
2019-04-29T08:49:59.759Z,96550.14
2019-04-29T08:52:26.862Z,96551.38
2019-04-29T08:54:55.295Z,96539.38
2019-04-29T08:57:22.875Z,96549.07
2019-04-29T08:59:49.951Z,96552.88
2019-04-29T09:02:17.158Z,96550.66
2019-04-29T09:04:53.324Z,96549.17
2019-04-29T09:07:17.382Z,96548.89
2019-04-29T09:09:42.765Z,96552.95
2019-04-29T09:12:10.103Z,96544.93
2019-04-29T09:14:37.371Z,96547.02
2019-04-29T09:17:09.030Z,96543.08
2019-04-29T09:19:33.449Z,96530.59
2019-04-29T09:22:02.403Z,96549.84
2019-04-29T09:24:29.415Z,96552.06
2019-04-29T09:27:05.031Z,96547.97
2019-04-29T09:29:34.431Z,96545.47
2019-04-29T09:32:02.147Z,96545.77
2019-04-29T09:34:29.360Z,96540.16
2019-04-29T09:36:56.464Z,96538.88
2019-04-29T09:39:23.678Z,96540.52
2019-04-29T09:41:53.378Z,96529.34
2019-04-29T09:44:41.101Z,96528.47
2019-04-29T09:47:10.285Z,96527.81
2019-04-29T09:49:37.591Z,96524.08
2019-04-29T09:52:04.918Z,96524.20
2019-04-29T09:54:31.823Z,96523.94
2019-04-29T09:56:58.879Z,96519.32
2019-04-29T09:59:28.393Z,96519.97
2019-04-29T10:02:15.387Z,96516.14
2019-04-29T10:04:56.671Z,96515.48
2019-04-29T10:07:19.624Z,96519.29
2019-04-29T10:09:57.000Z,96516.47
2019-04-29T10:12:15.582Z,96507.34
2019-04-29T10:14:42.906Z,96510.69
2019-04-29T10:17:15.445Z,96507.10
2019-04-29T10:19:43.879Z,96506.24
2019-04-29T10:22:10.987Z,96510.88
2019-04-29T10:24:38.048Z,96514.12
2019-04-29T10:27:07.244Z,96510.31
2019-04-29T10:29:34.597Z,96517.39
2019-04-29T10:32:02.428Z,96514.88
2019-04-29T10:34:32.930Z,96518.40
2019-04-29T10:37:00.796Z,96519.91
2019-04-29T10:39:27.618Z,96515.63
2019-04-29T10:41:56.265Z,96512.69
2019-04-29T10:44:41.936Z,96509.52
2019-04-29T10:47:13.904Z,96504.06
2019-04-29T10:49:58.094Z,96503.42
2019-04-29T10:52:26.083Z,96507.37
2019-04-29T10:54:55.214Z,96512.25
2019-04-29T10:57:22.883Z,96508.38
2019-04-29T10:59:55.428Z,96501.55
2019-04-29T11:02:24.430Z,96506.07
2019-04-29T11:12:26.221Z,96504.67
2019-04-29T11:14:53.449Z,96501.86
2019-04-29T11:17:22.595Z,96499.89
2019-04-29T11:19:49.899Z,96505.50
2019-04-29T11:22:19.075Z,96495.68
2019-04-29T11:25:04.585Z,96497.71
2019-04-29T11:27:50.388Z,96505.97
2019-04-29T11:30:22.490Z,96505.97
2019-04-29T11:32:51.617Z,96510.23
2019-04-29T11:35:37.457Z,96512.09
2019-04-29T11:38:07.693Z,96508.63
2019-04-29T11:40:42.981Z,96518.87
2019-04-29T11:43:06.076Z,96516.77
2019-04-29T11:45:37.947Z,96517.25
2019-04-29T11:48:03.062Z,96517.73
2019-04-29T11:50:32.154Z,96519.58
2019-04-29T11:52:59.168Z,96522.78
2019-04-29T11:55:26.512Z,96522.46
2019-04-29T11:57:55.456Z,96518.83
2019-04-29T12:00:24.655Z,96514.41
2019-04-29T12:02:56.086Z,96519.41
2019-04-29T12:05:28.008Z,96516.96
2019-04-29T12:07:55.571Z,96518.00
2019-04-29T12:10:23.108Z,96514.44
2019-04-29T12:12:50.986Z,96512.42
2019-04-29T12:15:23.215Z,96521.19
2019-04-29T12:18:08.602Z,96519.03
2019-04-29T12:20:40.618Z,96519.61
2019-04-29T12:23:11.172Z,96518.98
2019-04-29T12:25:36.788Z,96521.86
2019-04-29T12:28:12.498Z,96513.56
2019-04-29T12:30:37.355Z,96515.89
2019-04-29T12:33:04.379Z,96507.12
2019-04-29T12:35:51.012Z,96504.97
2019-04-29T12:38:39.363Z,96510.79
2019-04-29T12:41:01.227Z,96505.69
2019-04-29T12:43:32.323Z,96508.98
2019-04-29T12:46:10.172Z,96508.78
2019-04-29T12:48:38.805Z,96511.36
2019-04-29T12:51:05.497Z,96505.47
2019-04-29T12:53:32.611Z,96508.20
2019-04-29T12:56:00.074Z,96508.42
2019-04-29T12:58:27.174Z,96500.45
2019-04-29T13:01:01.072Z,96503.75
2019-04-29T13:03:30.966Z,96499.44
2019-04-29T13:06:23.720Z,96500.80
2019-04-29T13:08:47.897Z,96504.85
2019-04-29T13:11:19.179Z,96495.30
2019-04-29T13:13:44.668Z,96489.67
2019-04-29T13:16:21.980Z,96497.14
2019-04-29T13:19:10.637Z,96495.06
2019-04-29T13:21:26.045Z,96501.89
2019-04-29T13:24:04.932Z,96498.77
2019-04-29T13:26:28.145Z,96498.19
2019-04-29T13:29:00.241Z,96499.55
2019-04-29T13:31:20.334Z,96503.33
2019-04-29T13:33:50.868Z,96502.86
2019-04-29T13:36:19.718Z,96499.55
2019-04-29T13:38:46.562Z,96497.05
2019-04-29T13:41:14.270Z,96501.39
2019-04-29T13:43:42.581Z,96504.33
2019-04-29T13:46:12.583Z,96499.09
2019-04-29T13:49:06.439Z,96503.61
2019-04-29T13:51:47.163Z,96505.55
2019-04-29T13:54:14.211Z,96500.67
2019-04-29T13:56:55.471Z,96497.51
2019-04-29T13:59:12.596Z,96502.75
2019-04-29T14:02:04.421Z,96501.14
2019-04-29T14:04:29.668Z,96495.92
2019-04-29T14:06:57.665Z,96495.92
2019-04-29T14:09:25.035Z,96498.88
2019-04-29T14:12:01.743Z,96494.56
2019-04-29T14:14:22.643Z,96494.99
2019-04-29T14:16:49.949Z,96490.47
2019-04-29T14:19:20.545Z,96485.70
2019-04-29T14:21:46.046Z,96491.33
2019-04-29T14:24:13.187Z,96486.23
2019-04-29T14:26:42.015Z,96486.80
2019-04-29T14:29:08.994Z,96488.73
2019-04-29T14:31:35.927Z,96487.59
2019-04-29T14:34:05.300Z,96489.96
2019-04-29T14:36:32.323Z,96482.56
2019-04-29T14:38:59.238Z,96489.60
2019-04-29T14:41:28.362Z,96490.75
2019-04-29T14:44:00.006Z,96498.94
2019-04-29T14:46:34.968Z,96491.90
2019-04-29T14:49:10.371Z,96494.05
2019-04-29T14:51:38.100Z,96497.14
2019-04-29T14:54:06.128Z,96496.92
2019-04-29T14:56:34.298Z,96495.78
2019-04-29T14:59:06.856Z,96493.63
2019-04-29T15:01:38.852Z,96494.98
2019-04-29T15:04:17.920Z,96496.71
2019-04-29T15:06:37.378Z,96485.53
2019-04-29T15:09:16.736Z,96488.05
2019-04-29T15:11:41.158Z,96489.98
2019-04-29T15:14:27.991Z,96496.59
2019-04-29T15:17:03.661Z,96498.53
2019-04-29T15:19:49.396Z,96502.41
2019-04-29T15:22:27.026Z,96502.77
2019-04-29T15:24:53.950Z,96501.00
2019-04-29T15:27:21.139Z,96501.70
2019-04-29T15:29:48.140Z,96501.49
2019-04-29T15:32:17.943Z,96501.27
2019-04-29T15:34:48.149Z,96497.00
2019-04-29T15:37:13.642Z,96502.45
2019-04-29T15:39:45.334Z,96493.26
2019-04-29T15:42:09.981Z,96500.66
2019-04-29T15:44:37.222Z,96500.22
2019-04-29T15:47:04.209Z,96498.64
2019-04-29T15:49:31.337Z,96500.75
2019-04-29T15:51:58.249Z,96499.52
2019-04-29T15:54:26.187Z,96499.44
2019-04-29T15:56:54.159Z,96491.64
2019-04-29T15:59:21.181Z,96491.43
2019-04-29T16:01:48.088Z,96495.66
2019-04-29T16:04:20.744Z,96485.41
2019-04-29T16:06:48.135Z,96487.97
2019-04-29T16:12:05.112Z,96489.33
2019-04-29T16:14:30.042Z,96487.56
2019-04-29T16:16:57.267Z,96481.67
2019-04-29T16:19:24.099Z,96486.91
2019-04-29T16:21:51.021Z,96479.47
2019-04-29T16:24:26.213Z,96474.73
2019-04-29T16:26:53.239Z,96464.61
2019-04-29T16:29:15.976Z,96476.23
2019-04-29T16:31:42.767Z,96473.66
2019-04-29T16:34:09.811Z,96471.70
2019-04-29T16:36:36.685Z,96449.27
2019-04-29T16:39:05.018Z,96449.27
2019-04-29T16:41:35.578Z,96475.03
2019-04-29T16:44:05.116Z,96469.58
2019-04-29T16:46:37.579Z,96444.17
2019-04-29T16:49:02.867Z,96444.17
2019-04-29T16:51:29.892Z,96437.80
2019-04-29T16:53:57.632Z,96470.94
2019-04-29T16:56:24.546Z,96469.36
2019-04-29T16:58:51.612Z,96470.94
2019-04-29T17:01:18.726Z,96465.05
2019-04-29T17:03:45.774Z,96472.80
2019-04-29T17:06:12.889Z,96472.80
2019-04-29T17:08:50.660Z,96471.22
2019-04-29T17:11:27.328Z,96471.22
2019-04-29T17:13:54.427Z,96471.22
2019-04-29T17:16:23.271Z,96470.64
2019-04-29T17:18:50.193Z,96468.84
2019-04-29T17:21:17.396Z,96478.95
2019-04-29T17:23:44.336Z,96478.95
2019-04-29T17:26:11.351Z,96483.27
2019-04-29T17:28:46.730Z,96485.98
2019-04-29T17:31:30.705Z,96483.27
2019-04-29T17:34:00.127Z,96488.31
2019-04-29T17:35:17.187Z,96490.13
2019-04-29T17:36:27.913Z,96488.31
2019-04-29T17:38:54.935Z,96484.80
2019-04-29T17:41:21.888Z,96481.63
2019-04-29T17:43:48.708Z,96479.26
2019-04-29T17:46:28.046Z,96482.69
2019-04-29T17:49:05.927Z,96465.92
2019-04-29T17:51:34.035Z,96465.92
2019-04-29T17:54:05.237Z,96493.40
2019-04-29T17:56:32.192Z,96489.88
2019-04-29T17:59:01.699Z,96499.63
2019-04-29T18:01:28.691Z,96499.63
2019-04-29T18:03:55.852Z,96499.77
2019-04-29T18:06:28.349Z,96503.00
2019-04-29T18:09:15.813Z,96500.98
2019-04-29T18:11:51.868Z,96504.00
2019-04-29T18:14:12.071Z,96504.00
2019-04-29T18:16:43.697Z,96517.62
2019-04-29T18:19:18.967Z,96509.80
2019-04-29T18:22:07.199Z,96510.15
2019-04-29T18:24:38.584Z,96517.91
2019-04-29T18:27:16.332Z,96521.55
2019-04-29T18:29:43.475Z,96508.72
2019-04-29T18:32:10.479Z,96517.47
2019-04-29T18:34:37.654Z,96516.11
2019-04-29T18:37:06.537Z,96518.61
2019-04-29T18:39:33.699Z,96514.65
2019-04-29T18:42:03.084Z,96526.91
2019-04-29T18:44:29.631Z,96520.83
2019-04-29T18:46:57.366Z,96519.81
2019-04-29T18:49:25.833Z,96516.65
2019-04-29T18:51:52.828Z,96524.03
2019-04-29T18:54:20.249Z,96519.31
2019-04-29T18:56:47.335Z,96521.02
2019-04-29T18:59:17.882Z,96520.23
2019-04-29T19:01:45.042Z,96526.03
2019-04-29T19:04:19.088Z,96524.66
2019-04-29T19:06:46.131Z,96517.63
2019-04-29T19:09:18.554Z,96523.30
2019-04-29T19:11:42.914Z,96523.52
2019-04-29T19:14:10.022Z,96524.31
2019-04-29T19:16:39.362Z,96520.80
2019-04-29T19:19:05.899Z,96520.80
2019-04-29T19:21:33.026Z,96522.29
2019-04-29T19:24:00.725Z,96520.14
2019-04-29T19:26:28.051Z,96517.19
2019-04-29T19:28:56.417Z,96513.68
2019-04-29T19:31:25.182Z,96512.88
2019-04-29T19:33:52.519Z,96509.97
2019-04-29T19:36:21.748Z,96510.55
2019-04-29T19:38:49.459Z,96508.39
2019-04-29T19:41:18.094Z,96504.08
2019-04-29T19:43:48.304Z,96508.52
2019-04-29T19:46:22.545Z,96508.86
2019-04-29T19:48:44.998Z,96505.51
2019-04-29T19:51:16.025Z,96502.56
2019-04-29T19:53:43.557Z,96502.56
2019-04-29T19:56:12.642Z,96503.70
2019-04-29T19:58:39.892Z,96503.01
2019-04-29T20:01:13.434Z,96503.73
2019-04-29T20:03:41.705Z,96506.23
2019-04-29T20:06:14.072Z,96504.65
2019-04-29T20:08:51.051Z,96505.79
2019-04-29T20:11:14.039Z,96505.00
2019-04-29T20:13:40.195Z,96504.42
2019-04-29T20:16:17.932Z,96503.29
2019-04-29T20:18:57.772Z,96500.56
2019-04-29T20:23:27.470Z,96503.52
2019-04-29T20:23:46.297Z,96503.52
2019-04-29T20:26:29.715Z,96506.23
2019-04-29T20:28:57.019Z,96508.04
2019-04-29T20:31:26.071Z,96510.95
2019-04-29T20:33:53.545Z,96508.61
2019-04-29T20:36:33.011Z,96502.78
2019-04-29T20:38:50.288Z,96509.02
2019-04-29T20:41:30.069Z,96506.77
2019-04-29T20:43:46.605Z,96500.50
2019-04-29T20:46:15.956Z,96502.13
2019-04-29T20:48:42.989Z,96503.48
2019-04-29T20:51:13.602Z,96503.23
2019-04-29T20:53:41.052Z,96505.73
2019-04-29T20:56:12.035Z,96501.42
2019-04-29T20:58:37.189Z,96503.16
2019-04-29T21:01:10.861Z,96504.30
2019-04-29T21:03:35.825Z,96498.86
2019-04-29T21:06:04.541Z,96499.42
2019-04-29T21:08:32.145Z,96502.72
2019-04-29T21:11:01.105Z,96481.41
2019-04-29T21:13:48.800Z,96481.41
2019-04-29T21:16:22.812Z,96497.40
2019-04-29T21:18:53.038Z,96494.04
2019-04-29T21:21:20.945Z,96492.23
2019-04-29T21:23:48.357Z,96495.87
2019-04-29T21:26:15.856Z,96490.21
2019-04-29T21:28:46.527Z,96481.82
2019-04-29T21:31:16.660Z,96481.59
2019-04-29T21:33:41.098Z,96485.48
2019-04-29T21:36:15.317Z,96483.34
2019-04-29T21:39:01.854Z,96477.11
2019-04-29T21:41:29.450Z,96482.10
2019-04-29T21:43:56.653Z,96482.58
2019-04-29T21:46:27.912Z,96480.23
2019-04-29T21:48:52.513Z,96476.94
2019-04-29T21:51:19.434Z,96482.38
2019-04-29T21:53:47.069Z,96488.81
2019-04-29T21:56:16.035Z,96484.73
2019-04-29T21:58:43.083Z,96487.45
2019-04-29T22:01:10.201Z,96488.23
2019-04-29T22:03:37.312Z,96485.10
2019-04-29T22:06:04.579Z,96483.94
2019-04-29T22:08:31.676Z,96479.44
2019-04-29T22:11:04.901Z,96479.66
2019-04-29T22:13:30.700Z,96478.30
2019-04-29T22:15:57.387Z,96476.94
2019-04-29T22:18:25.819Z,96474.41
2019-04-29T22:20:52.870Z,96471.13
2019-04-29T22:23:19.979Z,96470.55
2019-04-29T22:25:47.402Z,96467.26
2019-04-29T22:28:16.024Z,96467.26
2019-04-29T22:30:45.289Z,96461.81
2019-04-29T22:33:12.719Z,96467.61
2019-04-29T22:35:40.852Z,96463.75
2019-04-29T22:38:12.484Z,96460.80
2019-04-29T22:40:40.945Z,96465.90
2019-04-29T22:43:14.281Z,96456.59
2019-04-29T22:45:40.831Z,96453.30
2019-04-29T22:48:14.867Z,96450.59
2019-04-29T22:50:38.271Z,96451.72
2019-04-29T22:53:08.739Z,96450.36
2019-04-29T22:55:37.174Z,96443.72
2019-04-29T22:58:08.130Z,96437.48
2019-04-29T23:00:33.873Z,96440.55
2019-04-29T23:03:02.417Z,96437.26
2019-04-29T23:05:30.361Z,96431.81
2019-04-29T23:08:00.222Z,96430.45
2019-04-29T23:10:28.048Z,96429.09
2019-04-29T23:12:57.450Z,96419.34
2019-04-29T23:15:26.044Z,96425.93
2019-04-29T23:17:53.260Z,96419.63
2019-04-29T23:20:28.862Z,96418.17
2019-04-29T23:22:57.944Z,96413.43
2019-04-29T23:25:29.925Z,96416.53
2019-04-29T23:27:56.017Z,96414.22
2019-04-29T23:30:25.131Z,96404.70
2019-04-29T23:32:52.255Z,96404.70
2019-04-29T23:35:19.328Z,96405.48
2019-04-29T23:37:46.230Z,96399.70
2019-04-29T23:40:13.631Z,96401.63
2019-04-29T23:42:43.701Z,96396.98
2019-04-29T23:45:18.719Z,96393.69
2019-04-29T23:47:41.886Z,96395.84
2019-04-29T23:50:08.044Z,96390.62
2019-04-29T23:52:37.250Z,96384.83
2019-04-29T23:55:07.787Z,96384.03
2019-04-29T23:57:55.483Z,96381.09
